createdAt,value
2018-10-19T00:00:45.062Z,100928.69
2018-10-19T00:03:48.026Z,100918.54
2018-10-19T00:06:50.996Z,100925.98
2018-10-19T00:09:53.999Z,100917.41
2018-10-19T00:16:20.851Z,100919.95
2018-10-19T00:19:23.791Z,100915.87
2018-10-19T00:22:26.761Z,100919.83
2018-10-19T00:25:29.701Z,100924.11
2018-10-19T00:28:32.657Z,100927.09
2018-10-19T00:31:35.668Z,100931.42
2018-10-19T00:34:38.598Z,100926.20
2018-10-19T00:37:41.523Z,100925.13
2018-10-19T00:40:44.476Z,100916.77
2018-10-19T00:43:47.461Z,100913.41
2018-10-19T00:46:50.444Z,100920.08
2018-10-19T00:49:53.441Z,100915.40
2018-10-19T00:52:56.713Z,100906.22
2018-10-19T00:55:59.704Z,100909.78
2018-10-19T00:59:02.734Z,100909.84
2018-10-19T01:02:05.694Z,100910.14
2018-10-19T01:05:08.673Z,100910.50
2018-10-19T01:08:11.945Z,100906.83
2018-10-19T01:11:15.041Z,100907.38
2018-10-19T01:14:17.955Z,100917.01
2018-10-19T01:17:20.945Z,100913.08
2018-10-19T01:20:23.898Z,100918.66
2018-10-19T01:23:26.862Z,100911.41
2018-10-19T01:26:29.814Z,100908.33
2018-10-19T01:29:32.769Z,100904.78
2018-10-19T01:32:36.110Z,100908.72
2018-10-19T01:35:39.109Z,100907.67
2018-10-19T01:38:42.135Z,100909.85
2018-10-19T01:41:45.132Z,100911.77
2018-10-19T01:44:48.102Z,100909.52
2018-10-19T01:47:51.051Z,100908.66
2018-10-19T01:50:54.138Z,100911.73
2018-10-19T01:53:57.085Z,100914.73
2018-10-19T01:57:00.028Z,100914.27
2018-10-19T02:00:03.334Z,100911.67
2018-10-19T02:03:06.389Z,100915.28
2018-10-19T02:06:09.373Z,100908.06
2018-10-19T02:09:12.426Z,100918.08
2018-10-19T02:12:15.363Z,100915.37
2018-10-19T02:15:18.377Z,100917.45
2018-10-19T02:18:21.243Z,100914.88
2018-10-19T02:21:24.202Z,100913.83
2018-10-19T02:24:27.199Z,100918.36
2018-10-19T02:27:30.234Z,100923.30
2018-10-19T02:30:33.165Z,100920.61
2018-10-19T02:33:36.126Z,100921.09
2018-10-19T02:36:39.053Z,100918.82
2018-10-19T02:39:41.974Z,100917.03
2018-10-19T02:42:44.925Z,100917.19
2018-10-19T02:45:47.861Z,100914.98
2018-10-19T02:48:50.804Z,100919.30
2018-10-19T02:51:53.735Z,100913.80
2018-10-19T02:54:56.713Z,100920.01
2018-10-19T02:57:59.705Z,100917.44
2018-10-19T03:01:02.665Z,100922.41
2018-10-19T03:04:05.690Z,100923.06
2018-10-19T03:07:08.661Z,100925.22
2018-10-19T03:10:11.614Z,100929.05
2018-10-19T03:13:14.568Z,100925.94
2018-10-19T03:16:17.525Z,100923.19
2018-10-19T03:19:20.529Z,100913.23
2018-10-19T03:22:23.465Z,100916.47
2018-10-19T03:25:26.493Z,100917.03
2018-10-19T03:28:29.445Z,100914.29
2018-10-19T03:31:32.457Z,100918.44
2018-10-19T03:34:35.410Z,100918.80
2018-10-19T03:37:38.349Z,100913.98
2018-10-19T03:40:41.285Z,100912.02
2018-10-19T03:43:44.222Z,100905.48
2018-10-19T03:46:47.182Z,100909.66
2018-10-19T03:49:50.136Z,100911.66
2018-10-19T03:52:53.065Z,100909.48
2018-10-19T03:55:56.016Z,100913.38
2018-10-19T03:58:58.985Z,100915.69
2018-10-19T04:02:01.898Z,100915.44
2018-10-19T04:05:05.012Z,100921.44
2018-10-19T04:08:07.966Z,100923.07
2018-10-19T04:11:10.951Z,100919.80
2018-10-19T04:14:13.908Z,100924.16
2018-10-19T04:17:16.960Z,100926.58
2018-10-19T04:20:19.890Z,100929.85
2018-10-19T04:23:22.833Z,100932.27
2018-10-19T04:26:25.772Z,100934.95
2018-10-19T04:29:28.745Z,100933.09
2018-10-19T04:32:31.694Z,100928.93
2018-10-19T04:35:34.657Z,100931.14
2018-10-19T04:38:37.621Z,100930.57
2018-10-19T04:41:40.646Z,100921.44
2018-10-19T04:44:43.534Z,100916.83
2018-10-19T04:47:46.576Z,100916.59
2018-10-19T04:50:49.543Z,100921.02
2018-10-19T04:53:52.540Z,100920.16
2018-10-19T04:56:55.539Z,100924.87
2018-10-19T04:59:58.479Z,100921.70
2018-10-19T05:03:01.496Z,100918.80
2018-10-19T05:06:04.977Z,100929.69
2018-10-19T05:09:09.944Z,100941.31
2018-10-19T05:12:12.913Z,100935.47
2018-10-19T05:15:15.896Z,100941.81
2018-10-19T05:18:18.888Z,100941.84
2018-10-19T05:21:21.861Z,100936.43
2018-10-19T05:24:25.097Z,100931.39
2018-10-19T05:27:28.024Z,100929.52
2018-10-19T05:30:30.979Z,100924.05
2018-10-19T05:33:34.065Z,100924.36
2018-10-19T05:36:37.081Z,100926.38
2018-10-19T05:39:40.054Z,100934.65
2018-10-19T05:42:43.033Z,100935.50
2018-10-19T05:45:45.963Z,100932.52
2018-10-19T05:48:48.959Z,100929.41
2018-10-19T05:51:51.965Z,100933.40
2018-10-19T05:54:54.942Z,100935.50
2018-10-19T05:57:57.918Z,100941.81
2018-10-19T06:01:00.903Z,100945.59
2018-10-19T06:04:04.160Z,100940.62
2018-10-19T06:07:07.179Z,100918.73
2018-10-19T06:10:10.227Z,100937.96
2018-10-19T06:13:13.154Z,100944.44
2018-10-19T06:16:16.150Z,100942.84
2018-10-19T06:19:20.059Z,100947.91
2018-10-19T06:22:23.017Z,100946.91
2018-10-19T06:25:25.961Z,100951.56
2018-10-19T06:28:28.954Z,100954.93
2018-10-19T06:31:31.891Z,100961.78
2018-10-19T06:34:34.894Z,100961.12
2018-10-19T06:37:37.857Z,100962.08
2018-10-19T06:40:40.866Z,100962.13
2018-10-19T06:43:43.749Z,100957.52
2018-10-19T06:46:46.806Z,100963.50
2018-10-19T06:49:49.727Z,100969.80
2018-10-19T06:52:52.896Z,100971.12
2018-10-19T06:55:55.909Z,100973.62
2018-10-19T06:58:58.877Z,100973.03
2018-10-19T07:02:01.849Z,100976.78
2018-10-19T07:05:05.308Z,100976.52
2018-10-19T07:08:08.407Z,100974.47
2018-10-19T07:11:11.260Z,100974.88
2018-10-19T07:14:14.218Z,100973.84
2018-10-19T07:17:17.238Z,100977.30
2018-10-19T07:20:20.141Z,100976.25
2018-10-19T07:23:23.106Z,100973.36
2018-10-19T07:26:26.064Z,100976.41
2018-10-19T07:29:29.021Z,100980.78
2018-10-19T07:32:31.941Z,100977.70
2018-10-19T07:35:34.885Z,100986.70
2018-10-19T07:38:37.828Z,100983.02
2018-10-19T07:41:40.852Z,100987.80
2018-10-19T07:44:43.750Z,100981.45
2018-10-19T07:47:46.726Z,100981.77
2018-10-19T07:50:49.599Z,100977.61
2018-10-19T07:53:52.549Z,100982.14
2018-10-19T07:56:55.513Z,100979.74
2018-10-19T07:59:58.439Z,100987.45
2018-10-19T08:03:01.394Z,100989.30
2018-10-19T08:06:04.335Z,100993.64
2018-10-19T08:09:09.397Z,100994.22
2018-10-19T08:12:12.318Z,100996.03
2018-10-19T08:15:15.271Z,100995.92
2018-10-19T08:18:18.244Z,101005.03
2018-10-19T08:21:21.149Z,101004.77
2018-10-19T08:24:24.074Z,101006.02
2018-10-19T08:27:27.005Z,101004.85
2018-10-19T08:30:29.907Z,101013.90
2018-10-19T08:33:32.821Z,101016.87
2018-10-19T08:36:35.730Z,101016.11
2018-10-19T08:39:38.660Z,101014.48
2018-10-19T08:42:41.582Z,101014.94
2018-10-19T08:45:44.630Z,101017.49
2018-10-19T08:48:47.561Z,101014.16
2018-10-19T08:51:50.544Z,101014.59
2018-10-19T08:54:53.551Z,101015.58
2018-10-19T08:57:56.522Z,101012.78
2018-10-19T09:00:59.442Z,101017.73
2018-10-19T09:04:02.439Z,101033.39
2018-10-19T09:07:05.403Z,101028.73
2018-10-19T09:10:08.720Z,101036.37
2018-10-19T09:13:11.740Z,101038.58
2018-10-19T09:16:14.701Z,101030.02
2018-10-19T09:19:17.707Z,101024.84
2018-10-19T09:22:20.956Z,101023.67
2018-10-19T09:25:23.901Z,101011.74
2018-10-19T09:28:26.866Z,101016.84
2018-10-19T09:31:29.813Z,101015.97
2018-10-19T09:34:32.905Z,101012.81
2018-10-19T09:37:35.909Z,101007.80
2018-10-19T09:40:39.326Z,101011.01
2018-10-19T09:43:42.228Z,101009.13
2018-10-19T09:46:45.176Z,101011.20
2018-10-19T09:49:48.168Z,101008.39
2018-10-19T09:52:51.110Z,101008.25
2018-10-19T09:55:54.092Z,101007.69
2018-10-19T09:58:57.047Z,101012.03
2018-10-19T10:01:59.965Z,101008.37
2018-10-19T10:05:02.960Z,101009.27
2018-10-19T10:08:05.938Z,101005.82
2018-10-19T10:11:08.844Z,101001.91
2018-10-19T10:14:11.873Z,100998.45
2018-10-19T10:17:14.869Z,101001.52
2018-10-19T10:20:17.782Z,100997.85
2018-10-19T10:23:20.754Z,101000.12
2018-10-19T10:26:23.701Z,101001.16
2018-10-19T10:29:26.675Z,100990.12
2018-10-19T10:32:29.642Z,100992.67
2018-10-19T10:35:32.485Z,100991.56
2018-10-19T10:38:35.416Z,100981.39
2018-10-19T10:41:38.409Z,100981.61
2018-10-19T10:44:41.369Z,100979.08
2018-10-19T10:47:44.343Z,100974.02
2018-10-19T10:50:47.262Z,100976.87
2018-10-19T10:53:50.165Z,100975.15
2018-10-19T10:56:53.109Z,100972.77
2018-10-19T10:59:56.053Z,100965.84
2018-10-19T11:02:58.957Z,100961.45
2018-10-19T11:06:02.229Z,100958.56
2018-10-19T11:09:08.218Z,100950.11
2018-10-19T11:12:11.134Z,100948.41
2018-10-19T11:15:14.085Z,100944.38
2018-10-19T11:18:17.418Z,100935.23
2018-10-19T11:21:20.766Z,100939.39
2018-10-19T11:24:23.975Z,100937.11
2018-10-19T11:27:27.344Z,100932.69
2018-10-19T11:30:30.518Z,100925.98
2018-10-19T11:33:34.568Z,100928.14
2018-10-19T11:36:37.742Z,100932.87
2018-10-19T11:39:58.607Z,100935.23
2018-10-19T11:43:02.309Z,100932.95
2018-10-19T11:46:06.134Z,100925.48
2018-10-19T11:49:09.246Z,100925.63
2018-10-19T11:52:12.214Z,100924.22
2018-10-19T11:55:15.216Z,100928.22
2018-10-19T11:58:18.160Z,100927.14
2018-10-19T12:01:21.105Z,100919.33
2018-10-19T12:04:24.050Z,100919.81
2018-10-19T12:07:26.972Z,100925.02
2018-10-19T12:10:29.943Z,100919.19
2018-10-19T12:13:32.830Z,100919.81
2018-10-19T12:16:35.781Z,100916.62
2018-10-19T12:19:38.685Z,100920.22
2018-10-19T12:22:41.617Z,100918.03
2018-10-19T12:25:44.595Z,100912.69
2018-10-19T12:28:47.525Z,100906.22
2018-10-19T12:31:50.475Z,100910.23
2018-10-19T12:34:53.574Z,100911.28
2018-10-19T12:37:56.495Z,100911.33
2018-10-19T12:40:59.405Z,100914.42
2018-10-19T12:44:02.333Z,100910.65
2018-10-19T12:47:22.548Z,100911.00
2018-10-19T12:50:25.429Z,100912.04
2018-10-19T12:53:28.404Z,100908.98
2018-10-19T12:56:34.349Z,100911.66
2018-10-19T12:59:37.434Z,100902.04
2018-10-19T13:02:40.334Z,100894.77
2018-10-19T13:05:43.260Z,100885.77
2018-10-19T13:08:46.201Z,100883.07
2018-10-19T13:11:49.138Z,100883.75
2018-10-19T13:14:52.104Z,100874.87
2018-10-19T13:17:55.024Z,100875.98
2018-10-19T13:20:58.291Z,100875.66
2018-10-19T13:24:01.246Z,100873.67
2018-10-19T13:27:04.305Z,100878.61
2018-10-19T13:30:07.332Z,100877.00
2018-10-19T13:33:10.474Z,100878.58
2018-10-19T13:36:13.454Z,100876.49
2018-10-19T13:39:16.412Z,100875.52
2018-10-19T13:42:19.272Z,100872.19
2018-10-19T13:45:22.212Z,100866.20
2018-10-19T13:48:25.151Z,100876.20
2018-10-19T13:51:28.122Z,100874.32
2018-10-19T13:54:31.201Z,100876.45
2018-10-19T13:57:34.095Z,100868.17
2018-10-19T14:00:37.021Z,100867.47
2018-10-19T14:03:39.955Z,100856.81
2018-10-19T14:06:42.864Z,100860.56
2018-10-19T14:09:45.782Z,100857.02
2018-10-19T14:12:48.757Z,100859.02
2018-10-19T14:15:51.740Z,100855.77
2018-10-19T14:18:54.654Z,100846.08
2018-10-19T14:21:57.606Z,100843.35
2018-10-19T14:25:00.665Z,100842.41
2018-10-19T14:28:03.612Z,100846.11
2018-10-19T14:31:06.591Z,100847.60
2018-10-19T14:34:09.528Z,100847.60
2018-10-19T14:37:12.449Z,100849.86
2018-10-19T14:40:17.793Z,100844.37
2018-10-19T14:43:20.759Z,100848.88
2018-10-19T14:46:23.709Z,100844.41
2018-10-19T14:49:26.644Z,100844.15
2018-10-19T14:52:29.621Z,100852.00
2018-10-19T14:55:32.540Z,100856.73
2018-10-19T14:58:35.437Z,100852.27
2018-10-19T15:01:38.361Z,100847.30
2018-10-19T15:04:41.262Z,100840.92
2018-10-19T15:07:44.191Z,100838.19
2018-10-19T15:10:47.416Z,100846.31
2018-10-19T15:13:50.089Z,100846.47
2018-10-19T15:16:53.042Z,100850.59
2018-10-19T15:19:55.974Z,100847.23
2018-10-19T15:22:58.890Z,100842.38
2018-10-19T15:26:02.554Z,100841.08
2018-10-19T15:29:05.844Z,100838.50
2018-10-19T15:32:09.253Z,100844.25
2018-10-19T15:35:12.843Z,100843.95
2018-10-19T15:38:16.593Z,100853.87
2018-10-19T15:41:19.784Z,100849.38
2018-10-19T15:44:22.985Z,100853.27
2018-10-19T15:47:28.334Z,100863.95
2018-10-19T15:50:31.466Z,100856.97
2018-10-19T15:53:34.777Z,100863.19
2018-10-19T15:56:38.072Z,100861.47
2018-10-19T15:59:41.078Z,100864.94
2018-10-19T16:02:45.227Z,100874.05
2018-10-19T16:05:48.500Z,100872.37
2018-10-19T16:08:51.934Z,100881.30
2018-10-19T16:11:55.474Z,100882.70
2018-10-19T16:14:58.776Z,100879.69
2018-10-19T16:18:01.710Z,100883.16
2018-10-19T16:21:05.038Z,100888.57
2018-10-19T16:24:07.979Z,100893.84
2018-10-19T16:27:11.042Z,100897.91
2018-10-19T16:30:14.055Z,100892.96
2018-10-19T16:33:16.986Z,100895.24
2018-10-19T16:36:19.987Z,100889.83
2018-10-19T16:39:22.945Z,100894.86
2018-10-19T16:42:25.889Z,100902.52
2018-10-19T16:45:28.822Z,100918.61
2018-10-19T16:48:31.835Z,100916.85
2018-10-19T16:51:34.793Z,100919.06
2018-10-19T16:54:37.693Z,100917.31
2018-10-19T16:57:40.627Z,100917.23
2018-10-19T17:00:43.587Z,100919.09
2018-10-19T17:03:46.497Z,100917.88
2018-10-19T17:06:49.432Z,100921.48
2018-10-19T17:09:52.436Z,100919.77
2018-10-19T17:12:55.474Z,100920.36
2018-10-19T17:15:58.390Z,100923.52
2018-10-19T17:19:01.895Z,100914.36
2018-10-19T17:22:05.359Z,100914.78
2018-10-19T17:25:10.184Z,100921.91
2018-10-19T17:28:13.073Z,100925.17
2018-10-19T17:31:16.133Z,100932.11
2018-10-19T17:34:18.974Z,100935.13
2018-10-19T17:37:21.917Z,100944.64
2018-10-19T17:40:24.859Z,100961.30
2018-10-19T17:43:27.883Z,100964.41
2018-10-19T17:46:30.858Z,100973.39
2018-10-19T17:49:33.836Z,100974.20
2018-10-19T17:52:37.067Z,100973.16
2018-10-19T17:55:40.012Z,100980.86
2018-10-19T17:58:43.010Z,100985.56
2018-10-19T18:01:46.006Z,100990.02
2018-10-19T18:04:49.048Z,100988.84
2018-10-19T18:07:51.950Z,100997.29
2018-10-19T18:10:54.950Z,100993.63
2018-10-19T18:13:57.954Z,100987.41
2018-10-19T18:17:00.978Z,100984.98
2018-10-19T18:20:04.003Z,100985.47
2018-10-19T18:23:07.102Z,100991.62
2018-10-19T18:26:10.007Z,100992.30
2018-10-19T18:29:12.976Z,100999.06
2018-10-19T18:32:16.012Z,100994.09
2018-10-19T18:35:18.977Z,101004.93
2018-10-19T18:38:21.880Z,101009.05
2018-10-19T18:41:24.833Z,101020.73
2018-10-19T18:44:27.766Z,101020.42
2018-10-19T18:47:30.723Z,101021.08
2018-10-19T18:50:33.679Z,101021.08
2018-10-19T18:53:36.779Z,101025.84
2018-10-19T18:56:40.063Z,101026.63
2018-10-19T18:59:43.080Z,101030.66
2018-10-19T19:02:46.189Z,101036.44
2018-10-19T19:05:49.521Z,101043.19
2018-10-19T19:08:53.115Z,101047.39
2018-10-19T19:11:56.473Z,101052.62
2018-10-19T19:14:59.574Z,101049.36
2018-10-19T19:18:02.542Z,101050.56
2018-10-19T19:21:05.942Z,101059.27
2018-10-19T19:24:15.037Z,101059.39
2018-10-19T19:27:18.378Z,101064.11
2018-10-19T19:30:21.596Z,101063.58
2018-10-19T19:33:30.331Z,101069.30
2018-10-19T19:36:33.693Z,101058.38
2018-10-19T19:39:37.166Z,101063.67
2018-10-19T19:42:43.014Z,101066.45
2018-10-19T19:45:46.240Z,101071.24
2018-10-19T19:48:55.755Z,101072.64
2018-10-19T19:51:59.119Z,101057.45
2018-10-19T19:55:02.708Z,101051.78
2018-10-19T19:58:06.392Z,101058.11
2018-10-19T20:01:09.972Z,101067.75
2018-10-19T20:04:16.992Z,101063.99
2018-10-19T20:07:20.397Z,101072.55
2018-10-19T20:10:24.012Z,101076.09
2018-10-19T20:13:27.402Z,101077.91
2018-10-19T20:16:30.729Z,101066.09
2018-10-19T20:19:34.382Z,101059.98
2018-10-19T20:22:37.953Z,101048.19
2018-10-19T20:25:41.309Z,101049.19
2018-10-19T20:28:44.927Z,101057.45
2018-10-19T20:31:47.807Z,101060.09
2018-10-19T20:34:51.187Z,101061.38
2018-10-19T20:37:55.187Z,101057.19
2018-10-19T20:40:59.310Z,101063.91
2018-10-19T20:44:02.328Z,101051.73
2018-10-19T20:47:05.917Z,101071.15
2018-10-19T20:50:08.975Z,101084.87
2018-10-19T20:53:11.981Z,101087.43
2018-10-19T20:56:14.944Z,101085.59
2018-10-19T20:59:17.935Z,101070.38
2018-10-19T21:02:21.000Z,101098.44
2018-10-19T21:05:23.960Z,101084.60
2018-10-19T21:08:27.002Z,101088.27
2018-10-19T21:11:30.007Z,101086.02
2018-10-19T21:14:33.018Z,101083.13
2018-10-19T21:17:36.538Z,101087.03
2018-10-19T21:20:39.856Z,101099.91
2018-10-19T21:23:43.055Z,101098.97
2018-10-19T21:26:46.250Z,101098.39
2018-10-19T21:29:49.187Z,101095.66
2018-10-19T21:32:52.134Z,101099.51
2018-10-19T21:35:55.119Z,101104.61
2018-10-19T21:38:58.098Z,101101.74
2018-10-19T21:42:01.051Z,101096.95
2018-10-19T21:45:04.350Z,101090.22
2018-10-19T21:48:07.315Z,101095.01
2018-10-19T21:51:17.016Z,101105.33
2018-10-19T21:54:19.989Z,101108.66
2018-10-19T21:57:22.978Z,101100.98
2018-10-19T22:00:26.053Z,101104.91
2018-10-19T22:03:29.031Z,101108.44
2018-10-19T22:06:32.038Z,101113.44
2018-10-19T22:09:34.959Z,101112.28
2018-10-19T22:12:37.878Z,101111.56
2018-10-19T22:15:40.872Z,101121.11
2018-10-19T22:18:43.857Z,101124.13
2018-10-19T22:21:46.824Z,101123.76
2018-10-19T22:24:49.843Z,101129.39
2018-10-19T22:27:52.798Z,101142.66
2018-10-19T22:30:55.787Z,101146.64
2018-10-19T22:33:58.711Z,101158.51
2018-10-19T22:37:01.648Z,101148.16
2018-10-19T22:40:05.172Z,101145.89
2018-10-19T22:43:08.239Z,101150.17
2018-10-19T22:46:11.153Z,101153.16
2018-10-19T22:49:14.162Z,101147.02
2018-10-19T22:52:17.042Z,101134.83
2018-10-19T22:55:20.002Z,101136.77
2018-10-19T22:58:23.098Z,101142.47
2018-10-19T23:01:26.125Z,101148.46
2018-10-19T23:04:29.081Z,101163.31
2018-10-19T23:07:32.061Z,101159.45
2018-10-19T23:10:35.095Z,101157.00
2018-10-19T23:13:38.050Z,101166.30
2018-10-19T23:16:41.055Z,101175.17
2018-10-19T23:19:44.003Z,101186.13
2018-10-19T23:22:47.031Z,101183.22
2018-10-19T23:25:49.966Z,101182.02
2018-10-19T23:28:52.944Z,101177.96
2018-10-19T23:31:55.956Z,101174.92
2018-10-19T23:34:58.976Z,101175.56
2018-10-19T23:38:02.102Z,101175.70
2018-10-19T23:41:05.160Z,101173.05
2018-10-19T23:44:08.249Z,101167.93
2018-10-19T23:47:11.251Z,101163.77
2018-10-19T23:50:14.157Z,101160.42
2018-10-19T23:53:17.186Z,101150.34
2018-10-19T23:56:20.146Z,101146.05
2018-10-19T23:59:23.057Z,101152.52
